createdAt,value
2019-02-15T00:01:00.023Z,37.20
2019-02-15T00:03:48.204Z,36.40
2019-02-15T00:06:36.058Z,38.60
2019-02-15T00:09:23.697Z,44.37
2019-02-15T00:12:11.272Z,33.27
2019-02-15T00:14:58.889Z,31.70
2019-02-15T00:17:51.456Z,36.80
2019-02-15T00:20:52.839Z,35.93
2019-02-15T00:23:40.814Z,34.53
2019-02-15T00:26:28.742Z,41.97
2019-02-15T00:29:16.769Z,32.63
2019-02-15T00:32:04.628Z,35.17
2019-02-15T00:34:52.537Z,36.50
2019-02-15T00:37:40.441Z,38.77
2019-02-15T00:40:28.359Z,37.53
2019-02-15T00:43:22.095Z,32.53
2019-02-15T00:46:13.898Z,33.77
2019-02-15T00:49:02.812Z,40.43
2019-02-15T00:52:09.373Z,36.23
2019-02-15T00:54:59.052Z,33.03
2019-02-15T00:58:04.266Z,39.13
2019-02-15T01:00:56.448Z,37.00
2019-02-15T01:03:52.214Z,34.83
2019-02-15T01:06:51.556Z,37.43
2019-02-15T01:09:41.089Z,36.07
2019-02-15T01:12:30.944Z,37.60
2019-02-15T01:15:18.763Z,36.43
2019-02-15T01:18:06.659Z,34.47
2019-02-15T01:20:54.414Z,36.47
2019-02-15T01:23:42.181Z,32.50
2019-02-15T01:26:37.926Z,34.97
2019-02-15T01:29:33.805Z,32.20
2019-02-15T01:32:38.672Z,30.83
2019-02-15T01:35:28.190Z,32.43
2019-02-15T01:38:21.111Z,34.53
2019-02-15T01:41:16.926Z,33.37
2019-02-15T01:44:15.357Z,33.70
2019-02-15T01:47:04.703Z,35.23
2019-02-15T01:49:52.528Z,35.60
2019-02-15T01:52:40.369Z,37.30
2019-02-15T01:55:27.976Z,41.53
2019-02-15T01:58:15.784Z,37.37
2019-02-15T02:01:03.925Z,36.57
2019-02-15T02:03:51.522Z,39.37
2019-02-15T02:06:39.490Z,37.47
2019-02-15T02:09:27.488Z,41.23
2019-02-15T02:12:15.514Z,36.57
2019-02-15T02:15:04.945Z,38.73
2019-02-15T02:17:52.634Z,34.37
2019-02-15T02:20:40.165Z,39.07
2019-02-15T02:23:27.927Z,33.13
2019-02-15T02:26:15.823Z,33.93
2019-02-15T02:29:03.729Z,34.47
2019-02-15T02:31:51.678Z,35.23
2019-02-15T02:34:39.580Z,32.23
2019-02-15T02:37:27.092Z,34.40
2019-02-15T02:40:14.778Z,37.00
2019-02-15T02:43:02.681Z,35.00
2019-02-15T02:45:50.610Z,33.97
2019-02-15T02:48:38.536Z,36.27
2019-02-15T02:51:26.192Z,37.17
2019-02-15T02:54:14.020Z,34.47
2019-02-15T02:57:01.605Z,37.67
2019-02-15T02:59:49.245Z,34.60
2019-02-15T03:02:37.032Z,33.07
2019-02-15T03:05:25.056Z,30.90
2019-02-15T03:08:12.869Z,35.50
2019-02-15T03:11:00.895Z,28.53
2019-02-15T03:13:48.578Z,32.40
2019-02-15T03:16:36.438Z,31.13
2019-02-15T03:19:24.360Z,31.63
2019-02-15T03:22:12.240Z,29.47
2019-02-15T03:24:59.952Z,34.43
2019-02-15T03:27:48.124Z,40.03
2019-02-15T03:30:35.873Z,39.07
2019-02-15T03:33:23.667Z,34.50
2019-02-15T03:36:13.268Z,35.07
2019-02-15T03:39:21.199Z,38.37
2019-02-15T03:42:10.837Z,29.70
2019-02-15T03:44:58.878Z,35.57
2019-02-15T03:47:46.535Z,32.57
2019-02-15T03:50:34.551Z,35.60
2019-02-15T03:53:22.590Z,30.07
2019-02-15T03:56:10.769Z,34.17
2019-02-15T03:58:58.649Z,34.37
2019-02-15T04:01:46.594Z,38.57
2019-02-15T04:04:34.293Z,29.30
2019-02-15T04:07:22.401Z,33.67
2019-02-15T04:10:10.200Z,35.00
2019-02-15T04:12:57.801Z,34.20
2019-02-15T04:15:45.674Z,35.13
2019-02-15T04:18:33.798Z,34.40
2019-02-15T04:21:21.549Z,34.20
2019-02-15T04:24:09.173Z,36.80
2019-02-15T04:26:56.986Z,37.97
2019-02-15T04:29:44.769Z,36.63
2019-02-15T04:32:32.542Z,39.37
2019-02-15T04:35:20.526Z,40.53
2019-02-15T04:38:08.447Z,34.17
2019-02-15T04:40:56.122Z,35.07
2019-02-15T04:43:43.881Z,35.47
2019-02-15T04:46:31.609Z,39.70
2019-02-15T04:49:19.697Z,34.63
2019-02-15T04:52:07.364Z,33.60
2019-02-15T04:54:55.004Z,32.07
2019-02-15T04:57:42.955Z,32.30
2019-02-15T05:00:31.097Z,34.87
2019-02-15T05:03:19.651Z,34.00
2019-02-15T05:06:07.477Z,31.47
2019-02-15T05:08:55.277Z,35.47
2019-02-15T05:11:43.446Z,37.63
2019-02-15T05:14:31.587Z,32.10
2019-02-15T05:17:19.549Z,34.73
2019-02-15T05:20:07.968Z,33.70
2019-02-15T05:22:56.000Z,34.27
2019-02-15T05:25:43.905Z,39.30
2019-02-15T05:28:31.710Z,39.20
2019-02-15T05:31:19.488Z,36.40
2019-02-15T05:34:07.316Z,33.40
2019-02-15T05:36:55.143Z,34.80
2019-02-15T05:39:43.071Z,38.57
2019-02-15T05:42:30.968Z,36.37
2019-02-15T05:45:19.060Z,37.10
2019-02-15T05:48:06.644Z,38.50
2019-02-15T05:50:54.391Z,34.57
2019-02-15T05:53:42.248Z,29.83
2019-02-15T05:56:29.902Z,37.87
2019-02-15T05:59:17.815Z,33.37
2019-02-15T06:02:05.665Z,34.27
2019-02-15T06:04:53.367Z,33.40
2019-02-15T06:07:41.193Z,31.87
2019-02-15T06:10:28.932Z,31.70
2019-02-15T06:13:16.620Z,33.53
2019-02-15T06:16:04.388Z,35.87
2019-02-15T06:18:52.223Z,31.97
2019-02-15T06:21:39.871Z,29.90
2019-02-15T06:24:28.000Z,34.00
2019-02-15T06:27:15.704Z,38.87
2019-02-15T06:30:03.599Z,41.50
2019-02-15T06:32:51.162Z,32.63
2019-02-15T06:35:39.823Z,33.20
2019-02-15T06:38:34.595Z,32.57
2019-02-15T06:41:17.533Z,36.27
2019-02-15T06:44:05.288Z,31.40
2019-02-15T06:46:53.065Z,36.97
2019-02-15T06:49:41.183Z,31.03
2019-02-15T06:52:29.100Z,29.70
2019-02-15T06:55:16.959Z,36.03
2019-02-15T06:58:04.838Z,35.17
2019-02-15T07:00:54.331Z,35.10
2019-02-15T07:03:52.625Z,36.53
2019-02-15T07:06:40.225Z,36.20
2019-02-15T07:09:28.084Z,35.10
2019-02-15T07:12:16.163Z,38.13
2019-02-15T07:15:05.237Z,40.00
2019-02-15T07:17:52.931Z,41.83
2019-02-15T07:20:40.721Z,41.73
2019-02-15T07:23:28.770Z,38.83
2019-02-15T07:26:16.804Z,40.07
2019-02-15T07:29:04.628Z,40.03
2019-02-15T07:31:52.513Z,41.23
2019-02-15T07:34:42.345Z,35.67
2019-02-15T07:37:30.258Z,43.90
2019-02-15T07:40:18.065Z,38.60
2019-02-15T07:43:05.784Z,43.97
2019-02-15T07:45:53.688Z,43.70
2019-02-15T07:48:41.476Z,42.70
2019-02-15T07:51:29.330Z,41.97
2019-02-15T07:54:17.252Z,43.40
2019-02-15T07:57:05.388Z,39.30
2019-02-15T07:59:52.877Z,42.43
2019-02-15T08:02:40.781Z,41.87
2019-02-15T08:05:28.504Z,39.00
2019-02-15T08:08:16.450Z,39.07
2019-02-15T08:11:04.224Z,50.63
2019-02-15T08:13:51.780Z,44.13
2019-02-15T08:16:39.785Z,44.67
2019-02-15T08:19:27.881Z,39.57
2019-02-15T08:22:15.708Z,45.27
2019-02-15T08:25:03.963Z,43.27
2019-02-15T08:27:51.843Z,41.93
2019-02-15T08:30:39.948Z,42.43
2019-02-15T08:33:27.697Z,40.37
2019-02-15T08:36:15.503Z,43.40
2019-02-15T08:39:04.816Z,44.60
2019-02-15T08:42:01.283Z,42.53
2019-02-15T08:44:42.579Z,44.50
2019-02-15T08:47:30.332Z,39.17
2019-02-15T08:50:18.259Z,40.73
2019-02-15T08:53:06.268Z,42.73
2019-02-15T08:55:54.264Z,42.20
2019-02-15T08:58:42.088Z,42.43
2019-02-15T09:01:29.954Z,38.67
2019-02-15T09:04:17.949Z,38.97
2019-02-15T09:07:05.896Z,37.27
2019-02-15T09:09:53.527Z,39.60
2019-02-15T09:12:41.360Z,36.53
2019-02-15T09:15:29.243Z,34.33
2019-02-15T09:18:16.938Z,38.87
2019-02-15T09:21:04.748Z,38.53
2019-02-15T09:23:52.661Z,36.30
2019-02-15T09:30:41.313Z,32.37
2019-02-15T09:33:29.224Z,29.87
2019-02-15T09:36:17.468Z,30.07
2019-02-15T09:39:06.740Z,33.43
2019-02-15T09:41:54.499Z,33.67
2019-02-15T09:44:42.370Z,31.17
2019-02-15T09:47:30.073Z,31.50
2019-02-15T09:50:17.977Z,32.03
2019-02-15T09:53:05.565Z,25.80
2019-02-15T09:55:53.230Z,25.33
2019-02-15T09:58:40.966Z,24.57
2019-02-15T10:01:28.922Z,28.03
2019-02-15T10:04:16.514Z,23.57
2019-02-15T10:07:04.389Z,23.83
2019-02-15T10:09:52.490Z,21.83
2019-02-15T10:12:40.153Z,20.90
2019-02-15T10:15:27.958Z,22.00
2019-02-15T10:18:15.928Z,23.33
2019-02-15T10:21:03.837Z,16.57
2019-02-15T10:23:51.650Z,16.33
2019-02-15T10:26:39.388Z,18.33
2019-02-15T10:29:27.315Z,18.10
2019-02-15T10:32:15.357Z,19.03
2019-02-15T10:35:06.455Z,15.43
2019-02-15T10:37:54.406Z,17.53
2019-02-15T10:40:42.144Z,16.67
2019-02-15T10:43:29.872Z,16.13
2019-02-15T10:46:17.967Z,13.73
2019-02-15T10:49:05.747Z,13.57
2019-02-15T10:51:53.660Z,17.10
2019-02-15T10:54:41.340Z,12.87
2019-02-15T10:57:29.446Z,15.87
2019-02-15T11:00:19.317Z,15.37
2019-02-15T11:03:07.735Z,20.10
2019-02-15T11:05:55.621Z,20.13
2019-02-15T11:08:43.546Z,17.17
2019-02-15T11:11:31.636Z,18.27
2019-02-15T11:14:19.618Z,16.07
2019-02-15T11:17:07.790Z,15.23
2019-02-15T11:19:55.942Z,12.83
2019-02-15T11:22:43.613Z,14.63
2019-02-15T11:25:31.284Z,15.20
2019-02-15T11:28:19.209Z,15.43
2019-02-15T11:31:07.150Z,13.80
2019-02-15T11:33:54.907Z,14.50
2019-02-15T11:36:42.563Z,15.57
2019-02-15T11:39:30.565Z,12.63
2019-02-15T11:42:18.666Z,14.47
2019-02-15T11:45:11.221Z,15.77
2019-02-15T11:47:58.969Z,13.40
2019-02-15T11:50:46.692Z,14.27
2019-02-15T11:53:34.409Z,13.07
2019-02-15T11:56:22.264Z,11.57
2019-02-15T11:59:10.119Z,10.90
2019-02-15T12:02:05.824Z,11.73
2019-02-15T12:04:48.081Z,12.13
2019-02-15T12:07:36.084Z,11.40
2019-02-15T12:10:24.236Z,9.63
2019-02-15T12:13:11.796Z,12.33
2019-02-15T12:15:59.697Z,10.60
2019-02-15T12:18:47.685Z,7.30
2019-02-15T12:21:35.678Z,9.40
2019-02-15T12:24:23.316Z,10.47
2019-02-15T12:27:11.165Z,8.30
2019-02-15T12:29:58.825Z,8.57
2019-02-15T12:32:46.446Z,7.30
2019-02-15T12:35:34.430Z,9.73
2019-02-15T12:38:22.209Z,10.03
2019-02-15T12:41:10.455Z,7.83
2019-02-15T12:43:58.078Z,9.63
2019-02-15T12:46:45.761Z,8.20
2019-02-15T12:49:33.760Z,8.23
2019-02-15T12:52:21.908Z,7.50
2019-02-15T12:55:09.767Z,8.73
2019-02-15T12:57:57.321Z,9.23
2019-02-15T13:00:45.201Z,7.83
2019-02-15T13:03:33.438Z,8.80
2019-02-15T13:06:28.427Z,9.53
2019-02-15T13:09:18.047Z,10.27
2019-02-15T13:12:01.249Z,8.57
2019-02-15T13:14:49.213Z,8.67
2019-02-15T13:17:37.234Z,8.83
2019-02-15T13:20:25.168Z,8.07
2019-02-15T13:23:13.105Z,8.53
2019-02-15T13:26:08.176Z,9.73
2019-02-15T13:28:51.127Z,8.23
2019-02-15T13:31:39.978Z,10.67
2019-02-15T13:34:27.608Z,8.87
2019-02-15T13:37:15.574Z,8.67
2019-02-15T13:40:04.068Z,8.63
2019-02-15T13:42:52.067Z,8.13
2019-02-15T13:45:39.861Z,12.47
2019-02-15T13:48:27.525Z,8.27
2019-02-15T13:51:15.569Z,8.73
2019-02-15T13:54:03.953Z,7.90
2019-02-15T13:56:51.403Z,6.60
2019-02-15T13:59:39.303Z,6.73
2019-02-15T14:02:27.241Z,9.30
2019-02-15T14:05:15.401Z,5.57
2019-02-15T14:08:03.085Z,7.40
2019-02-15T14:10:51.002Z,6.70
2019-02-15T14:13:38.885Z,4.93
2019-02-15T14:16:27.017Z,5.67
2019-02-15T14:19:14.718Z,6.43
2019-02-15T14:22:02.283Z,8.30
2019-02-15T14:24:50.149Z,5.67
2019-02-15T14:27:37.831Z,5.27
2019-02-15T14:30:25.657Z,5.67
2019-02-15T14:33:13.431Z,4.03
2019-02-15T14:36:01.259Z,6.00
2019-02-15T14:38:49.150Z,6.63
2019-02-15T14:41:37.092Z,3.67
2019-02-15T14:44:24.975Z,7.60
2019-02-15T14:47:12.862Z,5.63
2019-02-15T14:50:00.503Z,5.07
2019-02-15T14:52:48.114Z,5.23
2019-02-15T14:55:36.116Z,4.63
2019-02-15T14:58:24.405Z,10.00
2019-02-15T15:01:12.374Z,14.97
2019-02-15T15:04:00.326Z,9.53
2019-02-15T15:06:48.163Z,9.93
2019-02-15T15:09:36.166Z,9.97
2019-02-15T15:12:24.089Z,10.90
2019-02-15T15:15:13.311Z,9.77
2019-02-15T15:18:12.421Z,10.37
2019-02-15T15:20:50.857Z,10.50
2019-02-15T15:23:38.944Z,12.80
2019-02-15T15:26:26.813Z,15.63
2019-02-15T15:29:14.572Z,11.77
2019-02-15T15:32:02.413Z,15.63
2019-02-15T15:34:50.649Z,15.73
2019-02-15T15:37:38.532Z,15.00
2019-02-15T15:40:26.205Z,13.87
2019-02-15T15:43:13.861Z,15.20
2019-02-15T15:46:01.634Z,13.87
2019-02-15T15:48:49.489Z,16.73
2019-02-15T15:51:37.373Z,15.17
2019-02-15T15:54:25.319Z,15.27
2019-02-15T15:57:12.994Z,13.70
2019-02-15T16:00:00.941Z,14.37
2019-02-15T16:02:48.517Z,12.20
2019-02-15T16:05:36.303Z,15.17
2019-02-15T16:08:23.987Z,13.37
2019-02-15T16:11:11.778Z,14.73
2019-02-15T16:13:59.444Z,13.83
2019-02-15T16:16:47.222Z,12.53
2019-02-15T16:19:40.399Z,15.87
2019-02-15T16:22:25.956Z,15.37
2019-02-15T16:25:13.393Z,14.97
2019-02-15T16:28:01.065Z,14.23
2019-02-15T16:30:49.157Z,16.93
2019-02-15T16:33:37.121Z,15.93
2019-02-15T16:36:25.264Z,14.10
2019-02-15T16:39:13.042Z,17.90
2019-02-15T16:42:01.083Z,15.03
2019-02-15T16:44:48.702Z,13.67
2019-02-15T16:47:36.608Z,12.70
2019-02-15T16:50:24.338Z,15.10
2019-02-15T16:53:11.965Z,12.73
2019-02-15T16:55:59.714Z,11.07
2019-02-15T16:58:47.623Z,12.47
2019-02-15T17:01:35.531Z,11.60
2019-02-15T17:04:23.159Z,11.10
2019-02-15T17:07:11.227Z,10.23
2019-02-15T17:09:58.762Z,13.63
2019-02-15T17:12:46.676Z,11.80
2019-02-15T17:15:34.624Z,11.70
2019-02-15T17:18:22.281Z,10.53
2019-02-15T17:21:10.154Z,8.93
2019-02-15T17:23:58.198Z,10.97
2019-02-15T17:26:46.198Z,10.97
2019-02-15T17:29:33.858Z,10.77
2019-02-15T17:32:21.837Z,10.47
2019-02-15T17:35:11.026Z,12.40
2019-02-15T17:37:58.804Z,11.27
2019-02-15T17:40:46.462Z,11.17
2019-02-15T17:43:34.272Z,10.57
2019-02-15T17:46:22.301Z,10.70
2019-02-15T17:49:10.110Z,9.00
2019-02-15T17:51:58.060Z,10.73
2019-02-15T17:54:45.644Z,11.70
2019-02-15T17:57:33.687Z,15.00
2019-02-15T18:00:23.389Z,11.40
2019-02-15T18:03:11.254Z,12.23
2019-02-15T18:05:59.234Z,12.97
2019-02-15T18:08:47.358Z,13.40
2019-02-15T18:11:35.143Z,9.50
2019-02-15T18:14:22.952Z,11.20
2019-02-15T18:17:10.804Z,9.80
2019-02-15T18:19:58.586Z,11.27
2019-02-15T18:22:46.236Z,13.27
2019-02-15T18:25:34.122Z,8.83
2019-02-15T18:28:21.908Z,12.37
2019-02-15T18:31:09.852Z,9.17
2019-02-15T18:33:57.753Z,13.53
2019-02-15T18:36:45.546Z,11.10
2019-02-15T18:39:33.425Z,9.33
2019-02-15T18:42:21.405Z,15.60
2019-02-15T18:45:12.521Z,10.20
2019-02-15T18:48:00.261Z,13.67
2019-02-15T18:50:48.223Z,11.53
2019-02-15T18:53:36.325Z,15.80
2019-02-15T18:56:24.173Z,13.03
2019-02-15T18:59:12.167Z,12.70
2019-02-15T19:02:00.081Z,12.00
2019-02-15T19:04:47.985Z,16.13
2019-02-15T19:07:36.065Z,18.50
2019-02-15T19:10:24.510Z,19.00
2019-02-15T19:13:12.104Z,15.93
2019-02-15T19:16:00.142Z,16.47
2019-02-15T19:18:48.458Z,21.20
2019-02-15T19:21:36.277Z,16.90
2019-02-15T19:24:23.962Z,19.33
2019-02-15T19:27:11.786Z,19.93
2019-02-15T19:30:00.057Z,19.93
2019-02-15T19:32:47.958Z,24.00
2019-02-15T19:35:35.679Z,21.10
2019-02-15T19:38:23.349Z,20.43
2019-02-15T19:41:11.133Z,20.83
2019-02-15T19:43:58.961Z,20.33
2019-02-15T19:46:46.936Z,18.27
2019-02-15T19:49:38.786Z,18.57
2019-02-15T19:52:24.353Z,19.13
2019-02-15T19:55:12.181Z,17.30
2019-02-15T19:58:00.144Z,15.73
2019-02-15T20:00:47.941Z,17.57
2019-02-15T20:03:36.003Z,19.90
2019-02-15T20:06:23.814Z,20.37
2019-02-15T20:09:11.679Z,17.50
2019-02-15T20:11:59.840Z,17.47
2019-02-15T20:14:47.713Z,18.40
2019-02-15T20:17:35.536Z,17.57
2019-02-15T20:20:23.437Z,16.00
2019-02-15T20:23:11.272Z,20.70
2019-02-15T20:25:59.501Z,16.63
2019-02-15T20:28:47.437Z,19.47
2019-02-15T20:31:34.873Z,17.30
2019-02-15T20:34:22.772Z,15.53
2019-02-15T20:37:10.927Z,15.53
2019-02-15T20:39:58.738Z,17.10
2019-02-15T20:42:46.534Z,17.63
2019-02-15T20:45:34.432Z,11.97
2019-02-15T20:48:22.645Z,16.40
2019-02-15T20:51:10.649Z,15.47
2019-02-15T20:53:58.370Z,17.53
2019-02-15T20:56:46.334Z,17.13
2019-02-15T20:59:34.642Z,22.73
2019-02-15T21:02:22.893Z,20.13
2019-02-15T21:05:11.123Z,16.83
2019-02-15T21:07:58.913Z,17.37
2019-02-15T21:10:54.461Z,18.33
2019-02-15T21:13:36.740Z,15.23
2019-02-15T21:16:24.497Z,16.87
2019-02-15T21:19:12.425Z,14.97
2019-02-15T21:22:00.302Z,16.63
2019-02-15T21:24:48.293Z,17.33
2019-02-15T21:27:35.821Z,17.67
2019-02-15T21:30:23.731Z,16.50
2019-02-15T21:33:11.462Z,17.20
2019-02-15T21:35:59.255Z,21.80
2019-02-15T21:38:47.262Z,21.10
2019-02-15T21:41:35.206Z,24.50
2019-02-15T21:44:22.914Z,30.47
2019-02-15T21:47:10.593Z,29.13
2019-02-15T21:49:58.183Z,26.30
2019-02-15T21:52:46.114Z,26.03
2019-02-15T21:55:34.274Z,23.33
2019-02-15T21:58:21.905Z,18.40
2019-02-15T22:01:09.526Z,21.10
2019-02-15T22:03:57.514Z,21.97
2019-02-15T22:06:45.657Z,17.67
2019-02-15T22:09:33.520Z,25.47
2019-02-15T22:12:21.494Z,22.30
2019-02-15T22:15:14.455Z,20.30
2019-02-15T22:18:02.425Z,21.87
2019-02-15T22:20:50.088Z,22.83
2019-02-15T22:23:37.931Z,23.17
2019-02-15T22:26:25.806Z,23.10
2019-02-15T22:29:13.356Z,22.33
2019-02-15T22:32:01.235Z,26.13
2019-02-15T22:34:49.081Z,20.97
2019-02-15T22:37:37.250Z,22.33
2019-02-15T22:40:32.778Z,25.60
2019-02-15T22:43:21.841Z,21.37
2019-02-15T22:46:09.538Z,22.33
2019-02-15T22:48:57.532Z,23.83
2019-02-15T22:51:45.369Z,27.80
2019-02-15T22:54:33.401Z,21.77
2019-02-15T22:57:21.172Z,25.50
2019-02-15T23:00:23.906Z,28.80
2019-02-15T23:03:12.333Z,29.10
2019-02-15T23:06:00.029Z,27.53
2019-02-15T23:08:47.670Z,30.17
2019-02-15T23:11:35.879Z,27.00
2019-02-15T23:14:23.473Z,30.07
2019-02-15T23:17:11.338Z,25.40
2019-02-15T23:19:59.040Z,21.27
2019-02-15T23:22:47.146Z,19.00
2019-02-15T23:25:34.999Z,20.90
2019-02-15T23:28:22.644Z,24.50
2019-02-15T23:31:10.505Z,24.40
2019-02-15T23:33:58.578Z,19.10
2019-02-15T23:36:46.451Z,24.03
2019-02-15T23:39:34.501Z,25.33
2019-02-15T23:42:22.326Z,24.53
2019-02-15T23:45:10.402Z,24.40
2019-02-15T23:47:58.022Z,26.03
2019-02-15T23:50:54.392Z,24.43
2019-02-15T23:53:35.592Z,27.67
2019-02-15T23:56:23.679Z,25.57
2019-02-15T23:59:11.225Z,23.03
